< < Back
Terminal Aerodrome Forecast


Current Version              Previous Versions:   1  2  3  4  5  6  7  8  9  

Terminal Aerodrome Forecast

289
FTUS42 KTAE 010500
TAFTLH
TAF
KTLH 010532Z 0106/0206 11007KT P6SM BKN250
     FM011700 16012G18KT P6SM BKN050
     FM020000 15011KT P6SM -RA OVC015=

Latest METAR

052
SAUS80 KWBC 020000 CCA
MTRTLH
METAR KTLH 012353Z 15007KT 9SM -RA BKN060 BKN075 OVC100 16/13 A3002 RMK
AO2 SLP164 P0001 60001 T01560128 10211 20156 58009 $


USA.gov is the U.S. government's official web portal to all federal, state and local government web resources and services.